METARS
Date METAR Location Area
16/04/2015 LG1B 160830Z 22504KT 19/05 Q1024 Arsakeio Athens
18/04/2015 LGY7 180530Z 22501KT 18/04 Q1018 Aegina Attica
17/04/2015 LG5C 171730Z 15801KT 18/13 Q1020 Alimos Attica
18/04/2015 LGH5 180630Z 20303KT 18/07 Q1017 Ampelokipoi Attica
18/04/2015 LGS5 180530Z 29300KT 15/12 Q1017 Anavissos Attica
18/04/2015 LGO0 180530Z 24807KT 16/05 Q1018 Ano Liosia Attica
18/04/2015 LG9B 180530Z 09001KT 16/09 Q1017 Aspropirgos Attica
18/04/2015 LGB9 180530Z 18001KT 18/07 Q1018 Athens - Gazi Attica
18/04/2015 LGL5 180630Z 15805KT 15/05 Q1021 Ekali Attica
18/04/2015 LGS3 180430Z 24800KT 17/08 Q1017 Faliro Attica
18/04/2015 LGM3 180530Z 27002KT 18/09 Q1019 Hydra Attica
06/04/2015 LGO2 060130Z 20319G31KT 08/08 Q1010 Imittos Attica
18/04/2015 LGT8 180530Z 06800KT 13/04 Q1017 Ippokratios Attica
18/04/2015 LG99 180530Z 20301KT 19/04 Q1018 Kantza Attica
18/04/2015 LG13 180600Z 00000KT 16/06 Q1018 Kifissia Attica
18/04/2015 LG3C 180530Z 24801KT 18/05 Q1016 Korydallos Attica
18/04/2015 LGD6 180530Z 18003KT 17/11 Q1016 Lavrio Attica
18/04/2015 LGK0 180530Z 22501KT 17/05 Q1017 Marousi Attica
18/04/2015 LG00 180610Z 00000KT 16/04 Q1015 Marousi (Anavrita) Attica
16/04/2015 LGR0 160030Z 02300KT 15/07 Q1021 Nea Smirni Attica
18/04/2015 LGM8 180530Z 18000KT 18/07 Q1019 Neos Kosmos Attica
18/04/2015 LGK3 180530Z 29320KT 12/M04 Q1016 Parnitha 1230 EAA Attica
18/04/2015 LGT6 180430Z 22501KT 17/06 Q1018 Patissia Attica
18/04/2015 LGX9 180530Z 29309KT 14/04 Q1015 Penteli Attica
18/04/2015 LG67 180600Z 29212150G24354KT 183/38 Q10172 Penteli Attica
18/04/2015 LG6D 180530Z 04501KT 17/07 Q1017 Perama Attica
18/04/2015 LGU0 180530Z 24803KT 17/06 Q1018 Peristeri Attica
18/04/2015 LGY6 180530Z 24809KT 19/05 Q1017 Porto Rafti Attica
18/04/2015 LG96 180530Z 00000KT 17/07 Q1017 Psychico Attica
18/04/2015 LGZ0 180530Z 27002KT 18/05 Q1016 Rafina Attica
18/04/2015 LG2B 180530Z 20303KT 17/11 Q1017 SEF Attica
18/04/2015 LGG2 180630Z 13500KT 17/05 Q1016 Spata Attica
18/04/2015 LGS6 180530Z 33801KT 17/12 Q1017 Spetses Attica
18/04/2015 LG3B 180430Z 02301KT 10/07 Q1018 Tatoi Attica
18/04/2015 LGZ2 180530Z 22505KT 17/08 Q1018 Vari Attica
18/04/2015 LGR6 180530Z 29303KT 14/03 Q1017 Vilia Attica
18/04/2015 LG1D 180530Z 27003KT 16/05 Q1018 Vrilissia Attica
17/04/2015 LG74 162350Z 00000KT 145/105 Q10201 Ymittos Attica
18/04/2015 LGG1 180600Z 2474320G12150KT 167/78 Q194 Kalivia Thorikou Attica E
18/04/2015 LG45 180530Z 20303KT 17/10 Q1019 Markopoulo Attica E
17/04/2015 LG72 171700Z 00000KT 185/93 Q10164 Keratea Attica SE
13/04/2015 LGW4 130930Z 29303KT 17/M03 Q1013 Ag. Ioannis Sfakion Crete
18/04/2015 LGJ9 180530Z 24801KT 17/09 Q1020 Aghios Nikolaos Crete
18/04/2015 LGT4 180530Z 15805KT 17/05 Q1019 Alikianos Crete
18/04/2015 LGB6 180530Z 09003KT 17/03 Q1018 Anogeia Crete
18/04/2015 LGZ6 180530Z 20306KT 15/01 Q1023 Askyfou Crete
18/04/2015 LG25 180630Z 20301KT 19/08 Q1019 Chania Crete
18/04/2015 LGN3 180530Z 20301KT 17/08 Q1020 Chania Center Crete
27/03/2015 LG61 270630Z 22508KT 20/15 Q1005 Cost - Irakleio Crete
18/04/2015 LG2C 180630Z 24802KT 16/01 Q1007 Elos Crete
18/04/2015 LGL9 180530Z 22505KT 18/11 Q1019 Falasarna Crete
18/04/2015 LG9A 180530Z 24802KT 19/04 Q1019 Finokalia - Lasithi Crete
18/04/2015 LGL1 180630Z 02302KT 13/07 Q1020 Fourfouras Crete
18/04/2015 LGD4 180630Z 00008KT 19/05 Q1021 Fragmapotamon - Rethymno Crete
18/04/2015 LG30 180530Z 18005KT 18/11 Q1020 Heraklion - Knossos Crete
18/04/2015 LG95 180530Z 24802KT 16/14 Q1023 Ierapetra Crete
18/04/2015 LGP0 180530Z 22503KT 17/14 Q1022 Lentas Hrakleion Crete
16/04/2015 LGD7 162030Z 27006KT 07/05 Q1020 Metaxochori - Heraklion Crete
18/04/2015 LGI2 180530Z 24800KT 14/13 Q1022 Mires Crete
18/04/2015 LG36 180530Z 29301KT 14/08 Q1021 Paleochora Crete
18/04/2015 LG8A 180530Z 06803KT 12/11 Q1021 Pirathi Heraklion Crete
18/04/2015 LG58 180530Z 15813KT 19/07 Q1018 Rethymno Crete
18/04/2015 LGT2 180530Z 00000KT 15/14 Q1021 Rethymno - Plakia Crete
18/04/2015 LGY1 180130Z 04500KT 10/06 Q1024 Samaria Crete
18/04/2015 LGB4 180530Z 13502KT 13/00 Q1022 Samaria Crete
18/04/2015 LGM2 180530Z 15810KT 17/14 Q1020 Sitia Crete
18/04/2015 LG75 180530Z 13503KT 16/02 Q1023 Spili - Rethymnon Crete
18/04/2015 LG8B 180530Z 15804KT 17/09 Q1020 Stavrakia - Heraclion Crete
18/04/2015 LG50 180530Z 13500KT 14/04 Q1020 Tzermiado Lasithi Crete
18/04/2015 LG7B 180530Z 27003KT 15/13 Q1022 Vagionia - Heraklion Crete
18/04/2015 LG70 180530Z 24800KT 11/09 Q1019 Vrysses Crete
18/04/2015 LGT5 180530Z 18002KT 18/12 Q1019 Amorgos Cyclades
18/04/2015 LGN6 180530Z 20301KT 17/13 Q1017 Andros Cyclades
18/04/2015 LGS7 180530Z 22510KT 17/14 Q1019 Donoussa Cyclades
18/04/2015 LGI0 180530Z 18010KT 17/13 Q1020 Ios Cyclades
18/04/2015 LGP5 180530Z 24804KT 18/13 Q1020 Iraklia Cyclades
18/04/2015 LGE3 180530Z 18004G16KT 18/05 Q1017 Kea Cyclades
18/04/2015 LGX8 180530Z 22507KT 18/14 Q1020 Koufonissia Cyclades
10/04/2015 LGS0 100030Z 02317G30KT 10/04 Q1021 Milos Cyclades
18/04/2015 LG66 180530Z 20306KT 17/14 Q1018 Mykonos Cyclades
18/04/2015 LGM0 180530Z 18008KT 16/14 Q1020 Naxos Cyclades
18/04/2015 LGV3 180530Z 02300KT 11/00 Q1019 Naxos - Apiranthos Cyclades
18/04/2015 LGT0 180530Z 11303KT 18/09 Q1019 Naxos - Apollonas Cyclades
18/04/2015 LGU1 180530Z 27001KT 15/13 Q1020 Naxos - Damarionas Cyclades
18/04/2015 LGU2 180530Z 22505G17KT 13/11 Q1019 Naxos - Koronos Cyclades
18/04/2015 LGN7 180530Z 11305KT 13/13 Q1019 Naxos - Kynidaros Cyclades
18/04/2015 LGW1 180530Z 20303KT 15/14 Q1019 Naxos - Melanes Cyclades
18/04/2015 LGO7 180530Z 15806KT 18/15 Q1020 Naxos - Mikri Vigla Cyclades
18/04/2015 LG02 180530Z 18008KT 17/15 Q1020 Paros Cyclades
18/04/2015 LGX5 180530Z 22508KT 16/11 Q1018 Santorini Cyclades
18/04/2015 LGX7 180530Z 24804KT 17/12 Q1020 Schinoussa Cyclades
09/04/2015 LG07 082330Z 00000KT 99/M49 Q10088 Tinos Cyclades
18/04/2015 LGB8 180530Z 20300KT 16/14 Q1019 Tinos NOA Cyclades
18/04/2015 LGAB 180630Z 24807KT 17/05 Q1019 Emponas - Rhodes Dodecanese
18/04/2015 LGG6 180530Z 09003KT 17/14 Q1021 Kalymnos Dodecanese
18/04/2015 LGAC 180630Z 27003KT 15/15 Q1020 Kattavia - Rhodes Dodecanese
17/04/2015 LGAA 172330Z 22501KT 16/11 Q1023 Lindos - Rhodes Dodecanese
17/04/2015 LG65 171930Z 00000KT 00/00 Q 0 Patmos Dodecanese
18/04/2015 LGS9 180530Z 11304KT 16/13 Q1023 Rhodes Dodecanese
18/04/2015 LGM5 180530Z 18003KT 18/14 Q1020 Kasos Dodecanisa
18/04/2015 LGX1 180530Z 06806KT 17/14 Q1021 Kos Dodekanissa
18/04/2015 LG4A 180630Z 20304KT 17/14 Q1018 Chios East Aegean
11/04/2015 LG6C 111600Z 31507KT 17/00 Q1022 Chios Town East Aegean
18/04/2015 LGT1 180530Z 11302KT 17/15 Q1019 Fournoi East Aegean
18/04/2015 LGI9 180530Z 18006KT 16/09 Q1015 Ikaria East Aegean
18/04/2015 LGI5 180530Z 15804KT 16/14 Q1013 Lemnos East Aegean
18/04/2015 LGJ3 180530Z 18009KT 17/13 Q1020 Lesvos - Thermi East Aegean
20/03/2015 LGZ7 201530Z 33807KT 18/07 Q1018 Mantamados East Aegean
07/04/2015 LGY5 070830Z 33802KT 10/07 Q1013 Molyvos East Aegean
18/04/2015 LGF1 180630Z 15810KT 17/12 Q1018 Samos East Aegean
18/04/2015 LG2D 180530Z 13501KT 16/13 Q1017 Agia Paraskeui Lesvos East Aegen
18/04/2015 LGW7 180430Z 18005KT 15/09 Q1017 Akrotirio Paksimada Evia
18/04/2015 LGO3 180630Z 18003KT 17/06 Q1015 Chalkida Evia
18/04/2015 LGR5 180430Z 31500KT 18/02 Q1016 Kavodoro Evia
09/04/2015 LGY0 090700Z 11300KT 09/05 Q1034 Krieza Evia
18/04/2015 LGX0 180530Z 29300KT 15/07 Q1017 Kymi Evia
25/03/2015 LGT7 251000Z 27004KT 09/07 Q1011 Setta Evia
03/04/2015 LG81 030730Z 15803KT 13/06 Q1011 Steni Evia
16/04/2015 LGC4 161930Z 15804KT 16/09 Q1022 Styra Evia
18/04/2015 LGD3 180530Z 00000KT 16/09 Q1017 Zarakes Evia
18/04/2015 LGP6 180530Z 13504KT 12/04 Q1019 Agia Kyriaki Ioanninon Hepirus
18/04/2015 LGO1 180530Z 18000KT 09/08 Q1014 Aridaia Hepirus
18/04/2015 LGD2 180630Z 04500KT 12/08 Q1018 Arta - Kompoti Hepirus
18/04/2015 LG38 180630Z 09006KT 13/08 Q1019 Arta - Vlacherna Hepirus
17/04/2015 LGE4 171130Z 20303KT 17/07 Q1021 Aspraggeloi Hepirus
18/04/2015 LGI3 180530Z 06801KT 09/05 Q1018 Derviziana Hepirus
18/04/2015 LGP4 180530Z 02301KT 09/04 Q1017 Dodoni Hepirus
02/04/2015 LGL8 021430Z 02304KT 24/07 Q1015 Grammos Hepirus
18/04/2015 LG43 180630Z 06804KT 12/07 Q1017 Igoumenitsa Hepirus
18/04/2015 LG49 180530Z 00000KT 09/08 Q1017 Ioannina Anatoli Hepirus
18/04/2015 LGK1 180530Z 09003KT 15/10 Q1018 Kanali, Preveza Hepirus
18/04/2015 LGE0 180530Z 18003KT 10/02 Q1019 Katarraktis - Arta Hepirus
18/04/2015 LGO5 180530Z 27003KT 12/M01 Q1014 Kerasovo Konitsa Hepirus
18/04/2015 LG3A 180430Z 09003KT 12/03 Q1017 Konitsa Hepirus
11/04/2015 LGO8 111430Z 04502KT 14/00 Q1024 Metsovo Hepirus
15/04/2015 LGK6 151630Z 09000KT 15/05 Q1020 Papigo Hepirus
18/04/2015 LGF6 180230Z 00006KT 14/01 Q1017 Paramythia Hepirus
18/04/2015 LGK9 180530Z 06801KT 15/09 Q1019 Parga Hepirus
18/04/2015 LGK7 180430Z 11300KT 09/04 Q1018 Pesta Hepirus
18/04/2015 LGY9 180430Z 27003KT 10/M01 Q 990 Plikati Ioanninon Hepirus
18/04/2015 LGP1 180530Z 31501KT 10/04 Q1019 Pramanta Hepirus
18/04/2015 LGK2 180430Z 22509KT 13/M04 Q1016 Theodoriana, Arta Hepirus
18/04/2015 LGD0 180130Z 02301KT 09/02 Q1017 Tristeno - Ioannina Hepirus
18/04/2015 LGM4 180530Z 31502KT 10/06 Q1017 Tyria Hepirus
18/04/2015 LGR8 180530Z 00000KT 09/04 Q1019 Vourgareli Artas Hepirus
18/04/2015 LGN9 180430Z 22500KT 01/00 Q1018 Vovoussa Hepirus
18/04/2015 LGN0 180530Z 33800KT 10/05 Q1017 Zitsa Hepirus
18/04/2015 LGJ2 180530Z 00000KT 14/12 Q1017 Corfu - Gouvia Ionio
18/04/2015 LGB0 180530Z 04503KT 16/14 Q1018 Ithaki Ionio
18/04/2015 LGI7 180530Z 15810KT 16/13 Q1019 Lefkada Ionio
18/04/2015 LGN1 180530Z 24801KT 16/11 Q1016 Paxoi Ionio
18/04/2015 LGN4 180530Z 18005KT 17/15 Q1018 Zakynthos Ionio
18/04/2015 LGG9 180530Z 00002KT 12/02 Q1012 Amynteo Macedonia
18/04/2015 LG33 180630Z 31502KT 15/04 Q1012 Chalkidiki - Polygyros Macedonia
03/04/2015 LGJ1 031530Z 18005KT 09/03 Q1013 Chalkidiki - Stratoni Macedonia
18/04/2015 LGZ5 180430Z 18005KT 15/13 Q1012 Didymoteicho Macedonia
18/04/2015 LG55 180530Z 27002KT 14/08 Q1012 Dion Macedonia
18/04/2015 LGU8 180530Z 04500KT 12/10 Q1013 Doxato - Drama Macedonia
18/04/2015 LGH3 180550Z 08600KT 13/10 Q1013 Drama Macedonia
18/04/2015 LGH6 180130Z 18001KT 09/07 Q1014 Drama 2 Macedonia
18/04/2015 LGY3 180530Z 00002KT 12/11 Q1014 Eleutheroupoli Macedonia
18/04/2015 LGJ6 180550Z 17106KT 07/00 Q1011 Falakro Macedonia
17/04/2015 LG63 171330Z 22506KT 23/08 Q1018 Florina Macedonia
18/04/2015 LGZ8 180530Z 02302KT 12/10 Q1014 Fotolivos Macedonia
18/04/2015 LG73 180530Z 33800KT 12/08 Q1013 Giannitsa Macedonia
15/04/2015 LGF2 150630Z 29300KT 10/05 Q1022 Grevena Macedonia
18/04/2015 LGO4 180530Z 00003KT 14/01 Q1014 Hmathia - Rizomata Macedonia
18/04/2015 LG7D 180550Z 090864G1728KT 149/124 Q10117 Iera Moni Megistis Lauras Macedonia
18/04/2015 LG93 180530Z 27012KT 03/M02 Q1016 Kaimaktsalan Macedonia
18/04/2015 LG4D 180530Z 02303KT 11/09 Q1013 Kalampaki Drama Macedonia
18/04/2015 LGO9 180530Z 24803KT 17/08 Q1013 Kassandreia (Xalkidiki) Macedonia
04/04/2015 LGC0 041500Z 24803KT 14/06 Q1015 Kastoria Macedonia
18/04/2015 LG27 180550Z 06100KT 15/12 Q1014 Kavala - Dexameni Macedonia
18/04/2015 LG5D 180530Z 20303KT 14/00 Q1014 Kerasia Edessas Macedonia
18/04/2015 LG42 180530Z 06804KT 13/08 Q1012 Kilkis Macedonia
18/04/2015 LGW8 180530Z 00000KT 12/09 Q1014 Kimisi Macedonia
18/04/2015 LGJ4 180530Z 13505KT 15/02 Q1014 Kozani - Ardassa Macedonia
18/04/2015 LGP3 180530Z 33802KT 08/M01 Q1012 Lailias - Serres Macedonia
18/04/2015 LGZ9 180530Z 15806KT 12/03 Q1014 Mavropigi Macedonia
18/04/2015 LG3D 180530Z 04501KT 13/10 Q1014 Mikrokampos Drama Macedonia
18/04/2015 LG40 180530Z 29300KT 16/03 Q1014 Naousa Macedonia
18/04/2015 LG4B 180530Z 00000KT 13/12 Q1013 Nea Peramos Macedonia
18/04/2015 LGZ4 180630Z 11300KT 17/08 Q1014 Neos Marmaras Macedonia
18/04/2015 LG48 180530Z 27003KT 15/06 Q1011 Nevrokopi Drama Macedonia
18/04/2015 LGS4 180530Z 11303KT 13/01 Q1012 Notio Pedio - Eordea Macedonia
18/04/2015 LGW0 180530Z 15800KT 08/07 Q1015 Paranesti Macedonia
18/04/2015 LG26 180330Z 00000KT 00/00 Q 0 Ptolemaida Macedonia
18/04/2015 LG87 180530Z 18009KT 08/M01 Q1012 Seli Ski Center Macedonia
18/04/2015 LGW6 180530Z 11300KT 12/10 Q1015 Serres Macedonia
18/04/2015 LGD9 180530Z 00000KT 13/11 Q1014 Serres - Kerkini Macedonia
18/04/2015 LG14 180400Z 00000G31104KT 120/45 Q10123 Serres - Proti Macedonia
18/04/2015 LG5B 180530Z 15802KT 14/13 Q1013 Thasos Macedonia
07/04/2015 LGY8 071419Z 31505KT 9999 SCT036 10/00 Q1010 Thassos Macedonia
14/04/2015 LGR9 141230Z 31513KT 21/10 Q1020 Thessaloniki Macedonia
18/04/2015 LGF0 180530Z 15801KT 10/05 Q1013 Variko Macedonia
16/04/2015 LG82 160630Z 27009KT 06/01 Q1022 Vassilitsa Macedonia
17/04/2015 LGC2 171830Z 09000KT 17/10 Q1013 Vatopedi - Athos Macedonia
18/04/2015 LGE9 180430Z 31504KT 12/02 Q1015 Vegoritida Macedonia
18/04/2015 LGE5 180530Z 33800KT 16/07 Q1012 Veroia Macedonia
18/04/2015 LG98 180430Z 29301KT 08/M01 Q1013 Vlasti - Kozani Macedonia
18/04/2015 LGF5 180601Z 24403KT 13/04 Q1013 Vounochori - Kavala Macedonia
26/03/2015 LGU5 261230Z 06805KT -RA 13/11 Q1014 Agioi Theodoroi Peloponissos
18/04/2015 LGU7 180530Z 11300KT 12/00 Q1019 Alagonia - Messinia Peloponissos
18/04/2015 LG52 180530Z 13506KT 17/05 Q1017 Amaliada Peloponissos
18/04/2015 LG77 180530Z 15805KT 14/04 Q1019 Andritsaina Peloponissos
18/04/2015 LGU6 180530Z 00000KT 12/06 Q1021 Arfara - Messinia Peloponissos
18/04/2015 LGT3 180530Z 22501KT 13/07 Q1018 Argos Peloponissos
18/04/2015 LGV0 180530Z 24805KT 19/03 Q1016 Derveni Peloponissos
28/03/2015 LGK4 280630Z 15801KT -RA 03/02 Q1021 Elati Peloponissos
18/04/2015 LGC3 180530Z 11302KT 15/03 Q1018 Foloi - Ilia Peloponissos
18/04/2015 LGX6 180530Z 33801KT 15/02 Q1020 Geraki Peloponissos
18/04/2015 LGB7 180530Z 20303KT 15/10 Q1018 Ilia - Vartholomio Peloponissos
18/04/2015 LG85 180530Z 29303KT 17/07 Q1017 Isthmos Peloponissos
17/04/2015 LG6A 171630Z 24803KT 21/08 Q1022 Kalamata Peloponissos
18/04/2015 LGV7 180530Z 13506KT 14/00 Q1019 Kalavryta Peloponissos
18/04/2015 LGZ3 180530Z 09003KT 15/09 Q1020 Kardamyli Peloponissos
10/04/2015 LG0C 101130Z 02303KT 17/M01 Q1027 Kastritsi Peloponissos
18/04/2015 LGJ5 180530Z 06803KT 13/09 Q1019 Katakolo Peloponissos
18/04/2015 LGP7 180630Z 11301KT 09/02 Q1019 Kato Vlassia Peloponissos
27/03/2015 LGB2 272000Z 20301KT 27/23 Q1011 Katoachaia Peloponissos
15/04/2015 LGB5 152330Z 09003KT 15/07 Q1021 Kavomalias Peloponissos
18/04/2015 LGM7 180530Z 27003KT 18/08 Q1019 Kranidi Peloponissos
18/04/2015 LGV1 180530Z 11301KT 15/08 Q1019 Kyparissia Peloponissos
18/04/2015 LGW9 180530Z 15800KT 13/M01 Q1019 Lagadia Peloponissos
18/04/2015 LG0A 180530Z 27001KT 12/00 Q1020 Lampia - Ilia Peloponissos
18/04/2015 LG92 180530Z 29301KT 12/08 Q1017 Lappa-Larissos-Achaia Peloponissos
18/04/2015 LG4C 180530Z 02301KT 08/02 Q1019 Levidi Peloponissos
07/04/2015 LG91 070630Z 00000KT 21/15 Q1012 Lousika-Olenias-Achaia Peloponissos
18/04/2015 LGV4 180530Z 22511KT 12/11 Q1020 Lykochia Peloponissos
18/04/2015 LGG5 180530Z 00000KT 06/05 Q1020 Megalopoli Peloponissos
18/04/2015 LGV2 180530Z 09003KT 12/03 Q1020 Messinia - Kopanaki Peloponissos
18/04/2015 LGF8 180530Z 27002KT 14/07 Q1019 Molaoi Peloponissos
18/04/2015 LG56 180530Z 20316KT 19/08 Q1018 Monemvasia Peloponissos
18/04/2015 LGE1 180530Z 24806KT 19/03 Q1016 Nemea Peloponissos
18/04/2015 LGD5 180530Z 00000KT 08/05 Q1019 Oleni - Ilia Peloponissos
18/04/2015 LGB3 180530Z 09003KT 12/05 Q1019 Olympia Peloponissos
30/03/2015 LGV6 300430Z 24816KT 00/00 Q1011 Panachaiko Oros Peloponissos
16/04/2015 LGZ1 160030Z 15801KT 12/08 Q1020 Patra Peloponissos
18/04/2015 LG79 180400Z 00000KT 143/81 Q10189 Patra - Agia Peloponissos
18/04/2015 LG71 180200Z 00000KT 129/72 Q10190 Patra - Drosia Peloponissos
18/04/2015 LG84 180530Z 20305KT 15/10 Q1018 Patra - Port Peloponissos
18/04/2015 LG59 180630Z 11304KT 14/06 Q1018 Pirgos Peloponissos
18/04/2015 LGH8 180530Z 22504KT 15/10 Q1018 Rio Peloponissos
18/04/2015 LGT9 180630Z 11301KT 15/03 Q1017 Romanos - Patra Peloponissos
15/04/2015 LGA0 150030Z 20304KT 14/12 Q1017 Sagaiika Peloponissos
18/04/2015 LGF7 180530Z 22501KT 08/05 Q1019 Sparti Peloponissos
18/04/2015 LGS2 180530Z 06800KT 10/02 Q1020 Stemnitsa Peloponissos
18/04/2015 LGR1 180530Z 22510KT 13/M02 Q1015 Trikala Korinthias Peloponissos
18/04/2015 LG83 180630Z 00000KT 08/02 Q1020 Tripoli Peloponissos
18/04/2015 LGU9 180530Z 22501KT 08/01 Q1019 Vytina Peloponissos
18/04/2015 LG86 180530Z 09001KT 15/09 Q1018 Zaxaro Peloponissos
18/04/2015 LGN2 180530Z 24803KT 19/04 Q1017 Alonissos Sporades
18/04/2015 LGI1 180530Z 11302KT 17/10 Q1016 Skyros Sporades
18/04/2015 LGH9 180530Z 00000KT 11/08 Q1021 Agrinio Sterea Ellada
18/04/2015 LGC7 180530Z 00002KT 14/10 Q1018 Aitoliko Sterea Ellada
18/04/2015 LG29 180630Z 20300KT 12/07 Q1016 Amfiklia Sterea Ellada
16/04/2015 LGH1 160450Z 00000KT 105/44 Q10221 Amfiklia 2 Sterea Ellada
18/04/2015 LGG8 180530Z 33803KT 18/04 Q1019 Antikira Sterea Ellada
18/04/2015 LG97 180610Z 29007KT 14/00 Q1017 Arachova Sterea Ellada
18/04/2015 LGC5 180530Z 31510KT 13/M01 Q1019 Arahova Sterea Ellada
18/04/2015 LGH0 180430Z 22503KT 12/08 Q1015 Avlida Sterea Ellada
15/04/2015 LGR2 150030Z 09003KT 10/08 Q1019 Dam of Mornos Sterea Ellada
18/04/2015 LGR3 180530Z 00000KT 10/03 Q1019 Diakopi of Lidoriki Sterea Ellada
18/04/2015 LGW5 180530Z 04501KT 16/01 Q1015 Domokos Sterea Ellada
14/04/2015 LG21 141323Z 24804KT 29/15 Q1014 Evia - Chalkida Sterea Ellada
18/04/2015 LGY4 180530Z 29302KT 19/02 Q1018 Galaxidi Sterea Ellada
16/04/2015 LGC8 160630Z 135864G2592KT 141/107 Q10225 Gavalou - Aitol/nia Sterea Ellada
18/04/2015 LGJ7 180330Z 20312KT 15/06 Q1018 Kaparelli Sterea Ellada
18/04/2015 LGC9 180530Z 29301KT 02/01 Q1019 Karpenisi Sterea Ellada
18/04/2015 LGP9 180530Z 27012KT 19/02 Q1014 Kleidi Viotias Sterea Ellada
18/04/2015 LGR4 180530Z 18008KT 13/M01 Q1018 Koniakos of Lidoriki Sterea Ellada
18/04/2015 LG5A 180530Z 29305KT 17/06 Q1015 Kopaida Sterea Ellada
18/04/2015 LGV9 180430Z 15802KT 19/02 Q1015 Lamia Sterea Ellada
18/04/2015 LGJ8 180030Z 11300KT 09/06 Q1016 Lefkochori Sterea Ellada
18/04/2015 LGI8 180530Z 24805KT 20/03 Q1016 Livadeia Sterea Ellada
08/04/2015 LGE7 081030Z 27001KT -RA 07/06 Q1016 Makrakomi Sterea Ellada
18/04/2015 LGA6 180530Z 22507KT 09/M01 Q1015 Mavrolithari - Vardousia Sterea Ellada
18/04/2015 LGK8 180630Z 24803KT 09/02 Q1015 Myriki Sterea Ellada
18/04/2015 LGG4 180530Z 11302KT 08/02 Q1019 Orini Nafpaktia Sterea Ellada
18/04/2015 LGA4 180500Z 22512G24KT 02/M05 Q1012 Parnassos Sterea Ellada
18/04/2015 LGF9 180530Z 00000KT 05/M06 Q1016 Parnassos1950 Sterea Ellada
18/04/2015 LGL0 180530Z 27010G21KT 19/01 Q1016 Polydroso Sterea Ellada
07/04/2015 LGR7 071230Z 04508KT 11/09 Q1025 Prasino - Viotia Sterea Ellada
18/04/2015 LG69 180630Z 24800KT 17/06 Q1016 Tanagra Sterea Ellada
18/04/2015 LGO6 180530Z 31501KT 14/09 Q1016 Theologos Sterea Ellada
17/04/2015 LG46 171050Z 2705238G13878KT 212/95 Q266 Eptapyrgio Thes/niki
18/04/2015 LG94 180530Z 00000KT 169/55 Q10128 Hortiatis Thes/niki
18/04/2015 LG15 180612Z 09400KT 20/M02 Q1017 Kamara Thes/niki Thes/niki
16/04/2015 LGA5 160030Z 33800KT 06/04 Q1022 Lagadas Thes/niki
18/04/2015 LG7C 180530Z 06803KT 17/06 Q1014 Nea Michaniona Thes/niki
18/04/2015 LG8C 180530Z 06801KT 13/10 Q1013 Sindos Thes/niki
24/03/2015 LG11 240730Z 12901KT 10/06 Q1006 West Thes/niki Thes/niki
09/04/2015 LGV5 090230Z 31508KT 06/M04 Q1018 Tsamantas Thesprotia
18/04/2015 LGL4 180530Z 06804KT 10/00 Q1017 Gardiki Thessalia
18/04/2015 LGW3 180330Z 13501KT 13/04 Q1013 Kalabaka Thessalia
18/04/2015 LG2A 180530Z 13502KT 13/08 Q1015 Karditsa Thessalia
18/04/2015 LGU3 180400Z 202864G2592KT 146/46 Q10135 Larissa Thessalia
18/04/2015 LGS8 180530Z 00000KT 15/05 Q1015 Larissa - Agia Thessalia
17/04/2015 LGL7 171430Z 00022G36KT 17/06 Q1013 Limni Plastira Thessalia
18/04/2015 LG6B 180630Z 27001KT 17/05 Q1013 Moni Paou Thessalia
26/03/2015 LGU4 260700Z 29304KT 04/M07 Q1013 Olympos Thessalia
18/04/2015 LG7A 180600Z 2702592G5238KT 177/43 Q10153 Pedio Areos Volou Thessalia
17/04/2015 LGE2 170530Z 20301KT 05/02 Q1020 Pertouli Thessalia
04/04/2015 LGY2 041500Z 11305KT 13/05 Q1016 Portaria - Pelio Thessalia
13/04/2015 LG80 130830Z 04503KT 17/10 Q1026 Skopelos - Sporades Thessalia
18/04/2015 LG24 180630Z 18003KT 18/11 Q1015 Sporades - Skiathos Thessalia
18/04/2015 LG57 180630Z 00001KT 13/05 Q1014 Trikala Thessalia
18/04/2015 LG51 180530Z 04503KT 19/08 Q1015 Volos Thessalia
18/04/2015 LGG3 180430Z 27010G28KT 19/M03 Q1015 Zagora EAA Thessalia
18/04/2015 LGD8 180530Z 31502KT 17/14 Q1014 Alexandroupolis Thraki
16/04/2015 LGM9 160930Z 18004KT 18/10 Q1021 Imeros Thraki
10/04/2015 LG35 102238Z 10600KT 06/01 Q1026 Komotini Thraki
18/04/2015 LGL2 180530Z 22502KT 17/12 Q1012 Metaxades - Evros Thraki
18/04/2015 LG31 180530Z 20303KT 17/12 Q1011 Orestiada Thraki
18/04/2015 LGC1 180430Z 15815KT 15/13 Q1015 Samothraki Thraki
18/04/2015 LGC6 180430Z 02300KT 14/11 Q1013 Xanthi Thraki
www.meteorologia.gr